Time;durP1;ratioP1;P1;durP2;ratioP2;P2;SDS_P1;SDS_P2;PMS_P1;PMS_P2;Temp;Humidity;BMP_temperature;BMP_pressure;BME280_temperature;BME280_humidity;BME280_pressure;Samples;Min_cycle;Max_cycle;Signal;HPM_P1;HPM_P2
2022/12/31 00:01:39;;;;;;;0.82;0.50;;;22.80;49.30;;;;;;6085196;23;20018;-60
2022/12/31 00:04:05;;;;;;;1.23;0.68;;;22.80;49.30;;;;;;6084653;23;20048;-60
2022/12/31 00:06:34;;;;;;;1.63;0.80;;;22.70;49.30;;;;;;6082823;23;20024;-59
2022/12/31 00:09:03;;;;;;;1.30;0.70;;;22.70;49.30;;;;;;6085223;23;20411;-62
2022/12/31 00:11:29;;;;;;;1.23;0.80;;;22.70;49.40;;;;;;6084798;23;20022;-56
2022/12/31 00:13:55;;;;;;;0.98;0.60;;;22.70;49.40;;;;;;6084148;23;20022;-60
2022/12/31 00:16:24;;;;;;;0.73;0.60;;;22.60;50.20;;;;;;6085031;23;20089;-60
2022/12/31 00:18:52;;;;;;;0.98;0.60;;;22.60;49.40;;;;;;6085210;23;20070;-60
2022/12/31 00:21:19;;;;;;;0.82;0.57;;;22.60;49.50;;;;;;6083529;23;20015;-60
2022/12/31 00:23:45;;;;;;;1.23;0.60;;;22.60;49.50;;;;;;6083829;23;20554;-61
2022/12/31 00:26:23;;;;;;;1.05;0.57;;;22.60;49.90;;;;;;6083692;23;20094;-63
2022/12/31 00:28:51;;;;;;;1.48;0.63;;;22.60;49.60;;;;;;6083739;23;20446;-60
2022/12/31 00:31:19;;;;;;;0.98;0.65;;;22.60;49.60;;;;;;6060000;23;20014;-60
2022/12/31 00:33:45;;;;;;;0.95;0.63;;;22.50;49.70;;;;;;6085720;23;20022;-59
2022/12/31 00:36:12;;;;;;;0.95;0.50;;;22.50;49.70;;;;;;6085951;23;20017;-64
2022/12/31 00:38:39;;;;;;;0.55;0.55;;;22.50;49.70;;;;;;6084176;23;20026;-62
2022/12/31 00:41:06;;;;;;;1.17;0.50;;;22.50;49.70;;;;;;6086283;23;20102;-60
2022/12/31 00:43:33;;;;;;;1.58;0.80;;;22.50;49.80;;;;;;6083797;23;20029;-60
2022/12/31 00:45:59;;;;;;;0.77;0.60;;;22.40;49.70;;;;;;6036756;23;20022;-63
2022/12/31 00:48:25;;;;;;;0.73;0.50;;;22.40;49.80;;;;;;6085685;23;20417;-65
2022/12/31 00:50:52;;;;;;;0.57;0.57;;;22.40;49.80;;;;;;6087952;23;20052;-63
2022/12/31 00:53:17;;;;;;;1.63;0.60;;;22.40;49.80;;;;;;6087802;23;20054;-60
2022/12/31 00:55:43;;;;;;;0.68;0.40;;;22.40;49.90;;;;;;6087703;23;20042;-60
2022/12/31 00:58:08;;;;;;;0.80;0.70;;;22.40;49.90;;;;;;6085620;23;20497;-62
2022/12/31 01:00:35;;;;;;;0.68;0.57;;;22.40;50.00;;;;;;6085362;23;20046;-60
2022/12/31 01:03:01;;;;;;;0.95;0.47;;;22.30;50.70;;;;;;6062477;23;20403;-59
2022/12/31 01:05:28;;;;;;;0.50;0.43;;;22.30;49.90;;;;;;6088347;23;20480;-63
2022/12/31 01:07:54;;;;;;;0.75;0.50;;;22.30;49.90;;;;;;6084822;23;20018;-59
2022/12/31 01:11:17;;;;;;;1.02;0.68;;;22.30;50.00;;;;;;6086285;23;20052;-59
2022/12/31 01:13:05;;;;;;;1.88;0.70;;;22.30;50.00;;;;;;6086630;23;20065;-56
2022/12/31 01:15:35;;;;;;;0.65;0.55;;;22.30;50.00;;;;;;6086142;23;20267;-63
2022/12/31 01:18:03;;;;;;;0.45;0.43;;;22.30;50.00;;;;;;6084208;23;20010;-61
2022/12/31 01:20:29;;;;;;;0.82;0.57;;;22.20;50.00;;;;;;6087786;23;20014;-60
2022/12/31 01:22:54;;;;;;;0.55;0.50;;;22.20;50.00;;;;;;6086432;23;20250;-60
2022/12/31 01:25:20;;;;;;;0.90;0.50;;;22.20;50.10;;;;;;6088185;23;20098;-59
2022/12/31 01:27:45;;;;;;;0.50;0.50;;;22.20;50.10;;;;;;6084234;23;20447;-59
2022/12/31 01:30:11;;;;;;;0.70;0.43;;;22.20;50.10;;;;;;6086335;23;20015;-60
2022/12/31 01:32:37;;;;;;;0.95;0.50;;;22.20;50.20;;;;;;6087038;23;20448;-61
2022/12/31 01:35:03;;;;;;;0.60;0.38;;;22.20;50.20;;;;;;6087807;23;20022;-58
2022/12/31 01:37:29;;;;;;;0.73;0.52;;;22.10;50.10;;;;;;6086437;23;20422;-62
2022/12/31 01:39:54;;;;;;;0.65;0.40;;;22.10;50.10;;;;;;6084878;23;20408;-59
2022/12/31 01:42:20;;;;;;;1.15;0.47;;;22.10;50.20;;;;;;6087091;23;20534;-60
2022/12/31 01:44:54;;;;;;;0.70;0.57;;;22.10;50.20;;;;;;6086037;23;20018;-61
2022/12/31 01:47:33;;;;;;;1.60;0.50;;;22.10;50.20;;;;;;6061248;23;20022;-59
2022/12/31 01:50:07;;;;;;;0.45;0.40;;;22.10;50.30;;;;;;6087121;23;20018;-57
2022/12/31 01:52:38;;;;;;;0.63;0.40;;;22.00;50.30;;;;;;6085941;23;20352;-59
2022/12/31 01:55:07;;;;;;;0.43;0.40;;;22.00;50.30;;;;;;6085215;23;20037;-63
2022/12/31 01:57:34;;;;;;;0.52;0.40;;;22.00;50.40;;;;;;6084567;23;20054;-61
2022/12/31 02:00:00;;;;;;;0.80;0.32;;;22.00;50.40;;;;;;6085961;23;20019;-59
2022/12/31 02:02:26;;;;;;;0.43;0.43;;;22.00;50.30;;;;;;6085015;23;20018;-57
2022/12/31 02:04:55;;;;;;;0.98;0.38;;;22.00;50.40;;;;;;6085016;23;20034;-59
2022/12/31 02:07:22;;;;;;;0.45;0.38;;;22.00;50.40;;;;;;6085296;23;20014;-61
2022/12/31 02:09:47;;;;;;;2.42;0.45;;;22.00;50.40;;;;;;6087584;23;20038;-63
2022/12/31 02:12:13;;;;;;;0.60;0.40;;;21.90;50.40;;;;;;6084795;23;20037;-66
2022/12/31 02:14:43;;;;;;;1.05;0.40;;;21.90;50.40;;;;;;6085433;23;20270;-63
2022/12/31 02:17:39;;;;;;;0.55;0.40;;;21.90;50.50;;;;;;6086754;23;20085;-62
2022/12/31 02:20:19;;;;;;;0.57;0.28;;;21.90;50.50;;;;;;6087363;23;20078;-60
2022/12/31 02:23:03;;;;;;;1.17;0.40;;;21.90;50.60;;;;;;6086272;23;20080;-60
2022/12/31 02:26:06;;;;;;;0.47;0.30;;;21.90;50.60;;;;;;6086952;23;20018;-59
2022/12/31 02:28:44;;;;;;;1.13;0.50;;;21.90;50.60;;;;;;6084794;23;20022;-61
2022/12/31 02:31:23;;;;;;;0.40;0.22;;;21.80;50.60;;;;;;6085087;23;20023;-60
2022/12/31 02:33:55;;;;;;;0.32;0.25;;;21.80;50.60;;;;;;6086698;23;20024;-59
2022/12/31 02:36:29;;;;;;;0.68;0.40;;;21.80;50.70;;;;;;6084667;23;20041;-60
2022/12/31 02:38:56;;;;;;;0.40;0.38;;;21.80;50.70;;;;;;6084723;23;20026;-61
2022/12/31 02:44:24;;;;;;;0.35;0.30;;;21.80;50.70;;;;;;6085034;23;20101;-58
2022/12/31 02:47:08;;;;;;;0.80;0.30;;;21.80;50.70;;;;;;6086549;23;20036;-60
2022/12/31 02:49:49;;;;;;;1.23;0.47;;;21.70;50.70;;;;;;6085058;23;20109;-60
2022/12/31 02:52:24;;;;;;;0.50;0.40;;;21.70;50.80;;;;;;6086256;23;20026;-59
2022/12/31 02:55:01;;;;;;;0.88;0.30;;;21.70;50.80;;;;;;6084430;23;20018;-59
2022/12/31 02:57:56;;;;;;;0.60;0.60;;;21.70;51.50;;;;;;6084423;23;20026;-61
2022/12/31 03:03:07;;;;;;;0.65;0.40;;;21.70;50.90;;;;;;6085640;23;20026;-64
2022/12/31 03:05:39;;;;;;;0.50;0.30;;;21.60;50.80;;;;;;6084563;23;20018;-60
2022/12/31 03:08:04;;;;;;;0.38;0.38;;;21.60;50.90;;;;;;6085077;23;20022;-60
2022/12/31 03:10:30;;;;;;;0.85;0.32;;;21.60;50.90;;;;;;6086397;23;20019;-59
2022/12/31 03:12:57;;;;;;;0.57;0.40;;;21.60;50.90;;;;;;6086380;23;20026;-61
2022/12/31 03:15:28;;;;;;;0.38;0.30;;;21.60;50.90;;;;;;6085953;23;20029;-60
2022/12/31 03:18:00;;;;;;;0.40;0.20;;;21.60;50.90;;;;;;6086024;23;20015;-59
2022/12/31 03:23:18;;;;;;;0.57;0.20;;;21.60;50.90;;;;;;6081792;23;20388;-58
2022/12/31 03:25:44;;;;;;;0.28;0.22;;;21.60;51.00;;;;;;6087057;23;20314;-61
2022/12/31 03:28:16;;;;;;;0.28;0.28;;;21.60;51.00;;;;;;6083299;23;20026;-63
2022/12/31 03:30:45;;;;;;;0.43;0.32;;;21.50;51.00;;;;;;6084527;23;20018;-60
2022/12/31 03:33:11;;;;;;;0.75;0.30;;;21.50;51.00;;;;;;6084580;23;20022;-60
2022/12/31 03:35:38;;;;;;;0.20;0.20;;;21.50;51.00;;;;;;6086382;23;20021;-60
2022/12/31 03:38:04;;;;;;;0.30;0.30;;;21.50;51.10;;;;;;6083458;23;20101;-59
2022/12/31 03:40:33;;;;;;;1.15;0.30;;;21.50;51.10;;;;;;6084752;23;20069;-58
2022/12/31 03:42:59;;;;;;;0.47;0.30;;;21.50;51.10;;;;;;6084312;23;20097;-60
2022/12/31 03:45:24;;;;;;;0.50;0.30;;;21.50;51.10;;;;;;6084998;23;20388;-62
2022/12/31 03:47:50;;;;;;;0.50;0.30;;;21.50;51.30;;;;;;6083917;23;20029;-60
2022/12/31 03:50:17;;;;;;;0.20;0.20;;;21.40;51.10;;;;;;6084514;23;20027;-60
2022/12/31 03:52:44;;;;;;;0.28;0.22;;;21.40;51.20;;;;;;6083859;23;20486;-63
2022/12/31 03:55:11;;;;;;;0.30;0.20;;;21.40;51.20;;;;;;6085948;23;20065;-57
2022/12/31 03:57:37;;;;;;;0.30;0.30;;;21.40;51.20;;;;;;6059694;23;20023;-59
2022/12/31 04:00:04;;;;;;;0.35;0.20;;;21.40;51.20;;;;;;6085383;23;20014;-60
2022/12/31 04:02:30;;;;;;;0.40;0.30;;;21.40;51.20;;;;;;6084507;23;20049;-59
2022/12/31 04:04:56;;;;;;;0.57;0.40;;;21.40;51.30;;;;;;6085723;23;20014;-60
2022/12/31 04:07:22;;;;;;;0.20;0.20;;;21.40;51.30;;;;;;6085410;23;20023;-59
2022/12/31 04:09:47;;;;;;;0.73;0.30;;;21.40;51.20;;;;;;6083766;23;20102;-60
2022/12/31 04:12:13;;;;;;;0.17;0.17;;;21.30;51.30;;;;;;6083560;23;20050;-60
2022/12/31 04:14:39;;;;;;;0.75;0.20;;;21.30;51.30;;;;;;6086672;23;20109;-61
2022/12/31 04:17:04;;;;;;;0.20;0.20;;;21.30;51.40;;;;;;6083844;23;20054;-58
2022/12/31 04:19:30;;;;;;;0.45;0.22;;;21.30;51.40;;;;;;6083897;23;20046;-60
2022/12/31 04:21:56;;;;;;;0.28;0.20;;;21.30;51.40;;;;;;6085515;23;20019;-59
2022/12/31 04:24:21;;;;;;;0.32;0.30;;;21.30;51.50;;;;;;6061783;23;20494;-55
2022/12/31 04:26:47;;;;;;;1.20;0.30;;;21.30;51.50;;;;;;6088497;23;20069;-61
2022/12/31 04:29:13;;;;;;;1.20;0.22;;;21.30;51.50;;;;;;6085244;23;20451;-61
2022/12/31 04:31:38;;;;;;;0.15;0.15;;;21.30;51.50;;;;;;6085618;23;20026;-60
2022/12/31 04:34:04;;;;;;;0.20;0.20;;;21.20;51.50;;;;;;6087656;23;20010;-62
2022/12/31 04:36:29;;;;;;;0.82;0.17;;;21.20;51.50;;;;;;6087337;23;20146;-59
2022/12/31 04:38:55;;;;;;;0.28;0.17;;;21.20;51.50;;;;;;6085650;23;20018;-62
2022/12/31 04:41:22;;;;;;;0.47;0.30;;;21.20;51.60;;;;;;6088114;23;20173;-60
2022/12/31 04:43:53;;;;;;;0.28;0.20;;;21.20;51.60;;;;;;6086090;23;20097;-59
2022/12/31 04:46:25;;;;;;;0.17;0.17;;;21.20;51.50;;;;;;6087270;23;20089;-58
2022/12/31 04:48:51;;;;;;;0.50;0.20;;;21.20;51.50;;;;;;6087613;23;20482;-63
2022/12/31 04:51:17;;;;;;;0.82;0.30;;;21.20;51.70;;;;;;6085575;23;20015;-60
2022/12/31 04:53:42;;;;;;;0.60;0.20;;;21.20;51.60;;;;;;6087846;23;20023;-59
2022/12/31 04:56:09;;;;;;;3.15;0.20;;;21.10;51.60;;;;;;6087966;23;20020;-61
2022/12/31 04:58:36;;;;;;;0.20;0.20;;;21.10;51.60;;;;;;6084329;23;20014;-59
2022/12/31 05:01:02;;;;;;;0.20;0.20;;;21.20;51.70;;;;;;6085875;23;20324;-60
2022/12/31 05:03:28;;;;;;;0.10;0.10;;;21.10;51.60;;;;;;6085444;23;20025;-59
2022/12/31 05:06:02;;;;;;;0.28;0.20;;;21.10;51.60;;;;;;6087350;23;20022;-59
2022/12/31 05:08:29;;;;;;;0.22;0.22;;;21.10;51.60;;;;;;6087784;23;20060;-58
2022/12/31 05:10:55;;;;;;;0.20;0.20;;;21.10;51.60;;;;;;6085912;23;20544;-60
2022/12/31 05:13:20;;;;;;;1.25;0.30;;;21.10;51.70;;;;;;6087789;23;20019;-59
2022/12/31 05:15:46;;;;;;;0.50;0.20;;;21.10;51.70;;;;;;6087010;23;20454;-58
2022/12/31 05:18:12;;;;;;;0.20;0.20;;;21.10;51.80;;;;;;6060655;23;20022;-59
2022/12/31 05:20:38;;;;;;;0.30;0.20;;;21.10;52.40;;;;;;6086456;23;20015;-59
2022/12/31 05:23:04;;;;;;;0.90;0.32;;;21.10;51.70;;;;;;6084822;23;20025;-58
2022/12/31 05:25:29;;;;;;;0.28;0.28;;;21.10;51.80;;;;;;6087831;23;20324;-58
2022/12/31 05:27:55;;;;;;;0.52;0.30;;;21.00;51.70;;;;;;6086118;23;20709;-60
2022/12/31 05:30:21;;;;;;;0.85;0.30;;;21.10;51.80;;;;;;6086868;23;20022;-59
2022/12/31 05:32:46;;;;;;;0.20;0.20;;;21.00;51.90;;;;;;6086600;23;20447;-60
2022/12/31 05:35:12;;;;;;;0.25;0.25;;;21.00;51.90;;;;;;6087321;23;20010;-59
2022/12/31 05:37:38;;;;;;;0.20;0.20;;;21.00;51.80;;;;;;6084889;23;20014;-58
2022/12/31 05:40:05;;;;;;;0.65;0.20;;;21.00;51.80;;;;;;6087098;23;20027;-61
2022/12/31 05:42:31;;;;;;;0.30;0.20;;;21.00;51.80;;;;;;6084971;23;20096;-58
2022/12/31 05:44:56;;;;;;;0.85;0.28;;;21.00;51.90;;;;;;6085375;23;20018;-58
2022/12/31 05:47:22;;;;;;;0.20;0.20;;;21.00;51.90;;;;;;6087231;23;20023;-64
2022/12/31 05:49:48;;;;;;;0.85;0.30;;;21.00;52.60;;;;;;6087672;23;20022;-62
2022/12/31 05:52:14;;;;;;;0.20;0.20;;;21.00;52.00;;;;;;6036130;23;20022;-58
2022/12/31 05:54:40;;;;;;;0.20;0.20;;;21.00;52.00;;;;;;6087088;23;20030;-62
2022/12/31 05:57:06;;;;;;;0.20;0.20;;;20.90;52.00;;;;;;6084937;23;20091;-60
2022/12/31 05:59:32;;;;;;;0.77;0.30;;;20.90;52.00;;;;;;6085534;23;20018;-58
2022/12/31 06:01:57;;;;;;;0.75;0.20;;;20.90;52.00;;;;;;6086482;23;20011;-59
2022/12/31 06:04:23;;;;;;;0.45;0.20;;;20.90;52.00;;;;;;6061201;23;20022;-60
2022/12/31 06:06:49;;;;;;;0.30;0.30;;;20.90;52.00;;;;;;6085598;23;20102;-58
2022/12/31 06:09:16;;;;;;;0.20;0.20;;;20.90;52.00;;;;;;6087153;23;20301;-60
2022/12/31 06:11:42;;;;;;;0.30;0.30;;;20.90;52.30;;;;;;6060879;23;20057;-60
2022/12/31 06:14:08;;;;;;;0.40;0.20;;;20.90;52.00;;;;;;6085387;23;20019;-60
2022/12/31 06:16:33;;;;;;;0.57;0.30;;;20.90;52.10;;;;;;6087313;23;20046;-62
2022/12/31 06:19:00;;;;;;;0.45;0.20;;;20.90;52.10;;;;;;6087593;23;20021;-62
2022/12/31 06:21:26;;;;;;;0.30;0.17;;;20.80;52.10;;;;;;6084556;23;20014;-62
2022/12/31 06:23:51;;;;;;;0.20;0.10;;;20.80;52.10;;;;;;6087445;23;20069;-58
2022/12/31 06:26:17;;;;;;;0.40;0.20;;;20.80;52.10;;;;;;6085998;23;20343;-58
2022/12/31 06:28:43;;;;;;;0.30;0.20;;;20.80;52.10;;;;;;6085434;23;20093;-60
2022/12/31 06:31:11;;;;;;;0.17;0.10;;;20.80;52.10;;;;;;6086348;23;20064;-56
2022/12/31 06:33:37;;;;;;;0.15;0.15;;;20.80;52.20;;;;;;6060551;23;20511;-59
2022/12/31 06:36:05;;;;;;;0.30;0.20;;;20.80;52.20;;;;;;6085444;23;20021;-59
2022/12/31 06:38:33;;;;;;;0.28;0.10;;;20.80;52.20;;;;;;6086247;23;20026;-61
2022/12/31 06:41:05;;;;;;;0.40;0.22;;;20.80;52.20;;;;;;6085397;23;20036;-60
2022/12/31 06:43:32;;;;;;;0.35;0.10;;;20.80;52.30;;;;;;6085034;23;20014;-60
2022/12/31 06:46:06;;;;;;;0.20;0.20;;;20.70;52.20;;;;;;6084402;23;20022;-60
2022/12/31 06:48:32;;;;;;;0.17;0.17;;;20.70;52.20;;;;;;6086672;23;20022;-57
2022/12/31 06:51:07;;;;;;;0.20;0.10;;;20.70;52.30;;;;;;6084646;23;20018;-62
2022/12/31 06:53:33;;;;;;;0.50;0.10;;;20.70;52.30;;;;;;6085375;23;20014;-55
2022/12/31 06:56:13;;;;;;;0.73;0.20;;;20.70;52.30;;;;;;6085710;23;20520;-59
2022/12/31 06:58:39;;;;;;;0.30;0.17;;;20.70;52.30;;;;;;6085481;23;20014;-61
2022/12/31 07:01:28;;;;;;;0.10;0.10;;;20.70;52.30;;;;;;6086159;23;20010;-58
2022/12/31 07:04:16;;;;;;;0.35;0.10;;;20.70;52.40;;;;;;6061005;23;20033;-60
2022/12/31 07:06:54;;;;;;;0.20;0.10;;;20.70;52.50;;;;;;6084968;23;20085;-60
2022/12/31 07:09:51;;;;;;;0.10;0.10;;;20.70;52.50;;;;;;6086420;23;20021;-59
2022/12/31 07:12:17;;;;;;;0.63;0.20;;;20.70;52.50;;;;;;6071039;23;20022;-59
2022/12/31 07:14:56;;;;;;;0.20;0.15;;;20.60;52.60;;;;;;6085053;23;20089;-61
2022/12/31 07:17:46;;;;;;;0.20;0.20;;;20.60;52.60;;;;;;6084549;23;20014;-59
2022/12/31 07:20:17;;;;;;;0.10;0.10;;;20.60;52.60;;;;;;6086065;23;20010;-59
2022/12/31 07:22:44;;;;;;;0.38;0.38;;;20.60;52.60;;;;;;6084144;23;20014;-58
2022/12/31 07:25:17;;;;;;;0.98;0.20;;;20.60;52.70;;;;;;6084571;23;20459;-59
2022/12/31 07:28:28;;;;;;;0.15;0.15;;;20.60;52.70;;;;;;6085752;23;20018;-59
2022/12/31 07:30:59;;;;;;;1.00;0.20;;;20.60;52.70;;;;;;6086126;23;20721;-61
2022/12/31 07:33:52;;;;;;;0.35;0.20;;;20.50;52.70;;;;;;6085583;23;20301;-61
2022/12/31 07:36:48;;;;;;;0.20;0.20;;;20.50;52.70;;;;;;6084740;23;20021;-58
2022/12/31 07:39:40;;;;;;;0.52;0.20;;;20.50;52.70;;;;;;6086674;23;20053;-59
2022/12/31 07:42:40;;;;;;;1.15;0.30;;;20.50;52.70;;;;;;6060135;23;20050;-60
2022/12/31 07:45:13;;;;;;;0.20;0.20;;;20.50;52.80;;;;;;6086551;23;20065;-59
2022/12/31 07:47:39;;;;;;;0.30;0.10;;;20.50;52.80;;;;;;6086241;23;20019;-58
2022/12/31 07:50:12;;;;;;;0.85;0.25;;;20.50;52.80;;;;;;6086590;23;20024;-60
2022/12/31 07:52:38;;;;;;;0.22;0.10;;;20.50;52.80;;;;;;6084104;23;20018;-60
2022/12/31 07:55:04;;;;;;;0.75;0.20;;;20.50;52.90;;;;;;6084661;23;20399;-60
2022/12/31 07:57:45;;;;;;;0.15;0.10;;;20.50;52.90;;;;;;6084217;23;20700;-60
2022/12/31 08:00:13;;;;;;;0.55;0.47;;;20.50;52.90;;;;;;6084094;23;20019;-61
2022/12/31 08:03:11;;;;;;;0.82;0.17;;;20.50;53.00;;;;;;6084681;23;20014;-59
2022/12/31 08:06:20;;;;;;;1.17;0.20;;;20.50;53.00;;;;;;6087259;23;20018;-60
2022/12/31 08:09:14;;;;;;;0.20;0.10;;;20.40;53.00;;;;;;6038023;23;20018;-60
2022/12/31 08:11:48;;;;;;;0.10;0.10;;;20.40;53.10;;;;;;6085386;23;20054;-59
2022/12/31 08:14:14;;;;;;;0.20;0.10;;;20.40;53.00;;;;;;6084623;23;20029;-59
2022/12/31 08:16:40;;;;;;;1.30;0.20;;;20.40;53.00;;;;;;6086597;23;20014;-56
2022/12/31 08:19:12;;;;;;;0.10;0.10;;;20.40;53.10;;;;;;6087276;23;20450;-58
2022/12/31 08:21:51;;;;;;;0.93;0.20;;;20.40;53.10;;;;;;6060086;23;20026;-60
2022/12/31 08:24:28;;;;;;;0.20;0.10;;;20.40;53.10;;;;;;6084701;23;20075;-59
2022/12/31 08:27:19;;;;;;;0.13;0.10;;;20.40;53.20;;;;;;6085544;23;20383;-59
2022/12/31 08:29:48;;;;;;;0.45;0.20;;;20.40;53.20;;;;;;6087520;23;20051;-59
2022/12/31 08:32:31;;;;;;;0.20;0.20;;;20.40;53.20;;;;;;6085291;23;20470;-60
2022/12/31 08:35:07;;;;;;;1.00;0.20;;;20.40;53.40;;;;;;6086924;23;20014;-58
2022/12/31 08:37:56;;;;;;;2.40;0.30;;;20.40;53.30;;;;;;6085938;23;20044;-58
2022/12/31 08:40:52;;;;;;;6.80;0.28;;;20.50;54.00;;;;;;6079780;23;20018;-60
2022/12/31 08:43:31;;;;;;;2.15;0.35;;;21.10;53.30;;;;;;6084484;23;20134;-58
2022/12/31 08:45:58;;;;;;;1.63;0.30;;;21.90;51.30;;;;;;6084237;23;20109;-61
2022/12/31 08:48:37;;;;;;;4.75;0.40;;;22.50;49.90;;;;;;6084621;23;20024;-58
2022/12/31 08:51:03;;;;;;;0.80;0.20;;;23.20;48.90;;;;;;6083128;23;20033;-59
2022/12/31 08:53:29;;;;;;;2.25;0.30;;;23.60;47.90;;;;;;6085755;23;20022;-60
2022/12/31 08:56:19;;;;;;;0.10;0.10;;;23.80;47.60;;;;;;6085549;23;20539;-62
2022/12/31 08:58:50;;;;;;;2.30;0.28;;;23.70;47.70;;;;;;6070256;23;20053;-60
2022/12/31 09:01:20;;;;;;;1.10;0.20;;;23.60;48.10;;;;;;6081578;23;20022;-59
2022/12/31 09:04:11;;;;;;;1.17;0.20;;;23.60;48.40;;;;;;6059701;23;20032;-58
2022/12/31 09:06:57;;;;;;;0.17;0.17;;;23.50;48.60;;;;;;6058754;23;20018;-60
2022/12/31 09:09:25;;;;;;;0.25;0.10;;;23.40;48.60;;;;;;6083501;23;20069;-59
2022/12/31 09:12:00;;;;;;;0.93;0.30;;;23.30;49.00;;;;;;6085220;23;20057;-59
2022/12/31 09:14:55;;;;;;;1.00;0.20;;;23.30;49.30;;;;;;6085066;23;20020;-62
2022/12/31 09:17:30;;;;;;;1.55;0.20;;;23.10;49.60;;;;;;6073426;23;20023;-59
2022/12/31 09:19:56;;;;;;;2.15;0.30;;;23.10;50.00;;;;;;6084473;23;20123;-59
2022/12/31 09:22:21;;;;;;;3.17;0.30;;;23.00;50.20;;;;;;6083506;23;20086;-59
2022/12/31 09:24:47;;;;;;;2.00;0.40;;;22.90;50.50;;;;;;6085054;23;20113;-59
2022/12/31 09:27:25;;;;;;;2.45;0.50;;;22.90;50.80;;;;;;6081895;23;20019;-60
2022/12/31 09:30:02;;;;;;;2.35;0.45;;;22.90;51.10;;;;;;6084886;23;20018;-64
2022/12/31 09:33:05;;;;;;;2.00;0.45;;;22.80;51.20;;;;;;6082294;23;20470;-60
2022/12/31 09:35:46;;;;;;;2.58;0.40;;;22.90;51.40;;;;;;6084451;23;20582;-60
2022/12/31 09:38:39;;;;;;;2.88;0.50;;;22.80;51.60;;;;;;6083199;23;20018;-57
2022/12/31 09:41:15;;;;;;;4.93;0.88;;;22.80;51.70;;;;;;6083536;23;20179;-58
2022/12/31 09:44:16;;;;;;;2.47;0.40;;;22.80;51.70;;;;;;6061176;23;20101;-59
2022/12/31 09:47:05;;;;;;;3.33;0.50;;;22.80;51.90;;;;;;6084858;23;20053;-60
2022/12/31 09:49:55;;;;;;;1.67;0.50;;;22.80;51.90;;;;;;6003450;23;20026;-61
2022/12/31 09:52:39;;;;;;;3.10;0.45;;;22.80;52.00;;;;;;6084456;23;20030;-62
2022/12/31 09:55:11;;;;;;;3.00;0.43;;;22.80;52.00;;;;;;6086248;23;20018;-60
2022/12/31 09:57:59;;;;;;;1.17;0.35;;;22.80;52.00;;;;;;6084315;23;20014;-57
2022/12/31 10:00:38;;;;;;;2.03;0.40;;;22.80;52.10;;;;;;6086470;23;20054;-58
2022/12/31 10:03:27;;;;;;;1.13;0.50;;;22.90;52.30;;;;;;6085749;23;20014;-61
2022/12/31 10:05:59;;;;;;;1.65;0.43;;;22.90;52.40;;;;;;6086550;23;20024;-59
2022/12/31 10:08:43;;;;;;;2.65;0.43;;;22.80;52.40;;;;;;6080590;23;20050;-59
2022/12/31 10:11:23;;;;;;;2.08;0.50;;;22.80;52.50;;;;;;6083090;23;20022;-58
2022/12/31 10:14:06;;;;;;;0.65;0.30;;;22.80;52.70;;;;;;6085848;23;20447;-58
2022/12/31 10:16:50;;;;;;;1.85;0.68;;;22.80;52.70;;;;;;6083841;23;20502;-60
2022/12/31 10:19:25;;;;;;;1.73;0.40;;;22.80;52.70;;;;;;6085040;23;20018;-61
2022/12/31 10:22:17;;;;;;;5.32;0.60;;;22.80;53.50;;;;;;6081006;23;20066;-61
2022/12/31 10:24:55;;;;;;;2.90;0.80;;;22.90;53.00;;;;;;6081390;23;20637;-62
2022/12/31 10:27:49;;;;;;;1.08;0.40;;;22.90;53.00;;;;;;6083325;23;20026;-61
2022/12/31 10:30:18;;;;;;;1.38;0.47;;;22.90;53.00;;;;;;6086701;23;20065;-62
2022/12/31 10:33:07;;;;;;;4.28;0.63;;;22.90;53.00;;;;;;6084250;23;20019;-63
2022/12/31 10:36:12;;;;;;;0.63;0.40;;;22.90;53.00;;;;;;6084827;23;20021;-59
2022/12/31 10:39:02;;;;;;;0.70;0.30;;;22.90;53.10;;;;;;6083534;23;20070;-59
2022/12/31 10:41:49;;;;;;;0.98;0.30;;;22.90;53.10;;;;;;6084171;23;20085;-60
2022/12/31 10:44:52;;;;;;;1.02;0.57;;;22.90;53.10;;;;;;6084564;23;20023;-59
2022/12/31 10:47:56;;;;;;;0.65;0.50;;;22.90;53.10;;;;;;6082713;23;20392;-61
2022/12/31 10:50:45;;;;;;;3.00;0.60;;;23.00;53.20;;;;;;6086901;23;20089;-60
2022/12/31 10:53:20;;;;;;;6.38;0.70;;;23.00;53.30;;;;;;6082570;23;20101;-61
2022/12/31 10:55:48;;;;;;;3.55;0.75;;;23.00;53.20;;;;;;6083134;23;20029;-62
2022/12/31 10:58:52;;;;;;;1.30;0.60;;;23.00;53.20;;;;;;6083770;23;20018;-60
2022/12/31 11:01:34;;;;;;;1.88;0.40;;;23.00;53.30;;;;;;6081927;23;20109;-60
2022/12/31 11:04:24;;;;;;;2.00;0.60;;;23.10;53.40;;;;;;6085285;23;20018;-60
2022/12/31 11:07:15;;;;;;;1.10;0.40;;;23.10;53.40;;;;;;6082228;23;20029;-61
2022/12/31 11:09:59;;;;;;;1.05;0.52;;;23.10;54.10;;;;;;6082986;23;20022;-59
2022/12/31 11:12:53;;;;;;;2.13;0.70;;;23.10;53.20;;;;;;6055193;23;20032;-62
2022/12/31 11:15:21;;;;;;;1.60;0.50;;;23.10;53.30;;;;;;6086259;23;20736;-60
2022/12/31 11:18:06;;;;;;;2.40;0.60;;;23.10;53.20;;;;;;6081807;23;20018;-63
2022/12/31 11:20:54;;;;;;;1.98;1.17;;;23.10;53.10;;;;;;6083424;23;20015;-60
2022/12/31 11:23:29;;;;;;;0.85;0.60;;;23.10;53.10;;;;;;6083363;23;20093;-60
2022/12/31 11:26:19;;;;;;;5.97;0.95;;;23.00;53.20;;;;;;6084337;23;20054;-60
2022/12/31 11:29:03;;;;;;;2.35;0.80;;;23.00;53.40;;;;;;6084299;23;20469;-61
2022/12/31 11:31:53;;;;;;;5.97;0.90;;;23.00;53.60;;;;;;6082637;23;20407;-62
2022/12/31 11:34:58;;;;;;;3.35;1.00;;;23.00;53.70;;;;;;6083348;23;20697;-61
2022/12/31 11:37:45;;;;;;;3.42;0.63;;;23.00;53.60;;;;;;6083128;23;20090;-62
2022/12/31 11:40:23;;;;;;;6.90;1.10;;;23.00;53.80;;;;;;6084662;23;20026;-62
2022/12/31 11:43:14;;;;;;;2.53;0.70;;;23.10;54.00;;;;;;6083035;23;20121;-61
2022/12/31 11:45:52;;;;;;;3.40;0.77;;;23.10;54.20;;;;;;6070258;23;20022;-64
2022/12/31 11:48:47;;;;;;;2.80;0.57;;;23.10;54.00;;;;;;6083645;23;20962;-57
2022/12/31 11:51:56;;;;;;;2.58;0.70;;;23.20;54.00;;;;;;6085066;23;20014;-59
2022/12/31 11:54:36;;;;;;;4.45;0.73;;;23.20;53.90;;;;;;6083808;23;20106;-64
2022/12/31 11:57:21;;;;;;;2.50;0.90;;;23.30;54.00;;;;;;6084861;23;20218;-61
2022/12/31 11:59:47;;;;;;;7.28;1.08;;;23.30;54.00;;;;;;6084483;23;20014;-61
2022/12/31 12:02:26;;;;;;;4.00;0.90;;;23.20;54.30;;;;;;6084899;23;20011;-60
2022/12/31 12:04:55;;;;;;;2.67;0.90;;;23.00;55.00;;;;;;6084341;23;20010;-61
2022/12/31 12:07:23;;;;;;;4.53;1.42;;;23.00;55.70;;;;;;6083149;23;20015;-61
2022/12/31 12:09:51;;;;;;;4.10;1.13;;;23.00;56.30;;;;;;6082427;23;20050;-61
2022/12/31 12:12:17;;;;;;;1.30;0.70;;;23.00;57.20;;;;;;6081743;23;20467;-61
2022/12/31 12:14:47;;;;;;;1.77;1.00;;;23.00;56.50;;;;;;6083694;23;20014;-61
2022/12/31 12:17:22;;;;;;;;;;;23.00;56.60;;;;;;6083313;23;20449;-61
2022/12/31 12:19:55;;;;;;;3.00;1.20;;;23.00;57.10;;;;;;6084051;23;19917;-62
2022/12/31 12:22:26;;;;;;;2.47;0.80;;;23.00;56.80;;;;;;6081505;23;20021;-62
2022/12/31 12:25:04;;;;;;;1.95;0.95;;;23.00;56.70;;;;;;6084089;23;20015;-62
2022/12/31 12:27:32;;;;;;;4.43;1.27;;;23.00;56.50;;;;;;6084217;23;20010;-62
2022/12/31 12:30:06;;;;;;;4.22;1.30;;;23.00;56.40;;;;;;6058711;23;20018;-62
2022/12/31 12:32:32;;;;;;;2.63;1.00;;;23.00;56.40;;;;;;6084548;23;20026;-61
2022/12/31 12:34:58;;;;;;;3.75;1.23;;;23.00;56.30;;;;;;6059936;23;20014;-62
2022/12/31 12:37:32;;;;;;;2.58;1.40;;;23.10;56.30;;;;;;6086388;23;20347;-62
2022/12/31 12:40:16;;;;;;;5.00;0.93;;;23.10;56.30;;;;;;6086835;23;20371;-61
2022/12/31 12:42:49;;;;;;;3.50;1.10;;;23.10;56.20;;;;;;6086395;23;20018;-62
2022/12/31 12:45:38;;;;;;;3.58;0.90;;;23.20;56.20;;;;;;6088074;23;20022;-62
2022/12/31 12:48:17;;;;;;;5.70;1.45;;;23.20;56.10;;;;;;6088654;23;20492;-61
2022/12/31 12:50:47;;;;;;;1.83;1.00;;;23.20;56.10;;;;;;6088427;23;20450;-62
2022/12/31 12:53:31;;;;;;;5.68;1.45;;;23.20;55.70;;;;;;6087047;23;20158;-62
2022/12/31 12:56:10;;;;;;;4.32;1.35;;;23.00;55.90;;;;;;6088565;23;20025;-61
2022/12/31 12:58:53;;;;;;;7.47;1.42;;;22.90;56.30;;;;;;6085045;23;20045;-61
2022/12/31 13:01:42;;;;;;;6.38;1.20;;;22.90;56.30;;;;;;6086637;23;20023;-63
2022/12/31 13:04:14;;;;;;;3.70;1.42;;;22.90;56.30;;;;;;6086425;23;20022;-64
2022/12/31 13:07:00;;;;;;;3.20;1.23;;;22.90;56.10;;;;;;6086099;23;20030;-60
2022/12/31 13:09:52;;;;;;;7.30;1.42;;;23.00;55.90;;;;;;6088493;23;20045;-62
2022/12/31 13:12:29;;;;;;;5.15;1.50;;;23.00;56.00;;;;;;6088301;23;20042;-61
2022/12/31 13:15:32;;;;;;;5.50;1.40;;;23.10;55.80;;;;;;6087405;23;20064;-63
2022/12/31 13:18:12;;;;;;;9.70;1.67;;;23.10;55.80;;;;;;6086792;23;20014;-61
2022/12/31 13:20:52;;;;;;;8.45;1.83;;;23.20;55.70;;;;;;6089262;23;20049;-60
2022/12/31 13:23:46;;;;;;;5.63;1.60;;;23.20;55.60;;;;;;6086952;23;20025;-66
2022/12/31 13:26:50;;;;;;;4.15;1.40;;;23.20;55.40;;;;;;6087019;23;20022;-63
2022/12/31 13:29:24;;;;;;;6.15;2.00;;;23.20;55.40;;;;;;6088375;23;20344;-63
2022/12/31 13:31:51;;;;;;;3.00;1.75;;;23.20;55.50;;;;;;6086478;23;20101;-62
2022/12/31 13:34:23;;;;;;;7.50;1.85;;;23.20;56.00;;;;;;6086171;23;20101;-61